sensor_id;sensor_type;location;lat;lon;timestamp;pressure;altitude;pressure_sealevel;temperature;humidity
29197;BME280;62796;42.654;23.316;2022-08-20T00:01:17;94185.91;;;26.16;48.27
29197;BME280;62796;42.654;23.316;2022-08-20T00:03:42;94164.88;;;26.09;47.91
29197;BME280;62796;42.654;23.316;2022-08-20T00:06:14;94179.69;;;26.12;48.27
29197;BME280;62796;42.654;23.316;2022-08-20T00:08:41;94169.94;;;26.11;48.30
29197;BME280;62796;42.654;23.316;2022-08-20T00:11:11;94172.66;;;26.11;48.30
29197;BME280;62796;42.654;23.316;2022-08-20T00:13:43;94167.22;;;26.11;48.37
29197;BME280;62796;42.654;23.316;2022-08-20T00:16:11;94165.16;;;26.01;48.62
29197;BME280;62796;42.654;23.316;2022-08-20T00:18:38;94178.06;;;26.07;48.24
29197;BME280;62796;42.654;23.316;2022-08-20T00:21:07;94178.78;;;26.04;48.54
29197;BME280;62796;42.654;23.316;2022-08-20T00:23:36;94180.38;;;26.05;48.38
29197;BME280;62796;42.654;23.316;2022-08-20T00:26:02;94172.25;;;26.09;48.39
29197;BME280;62796;42.654;23.316;2022-08-20T00:28:28;94178.06;;;26.07;48.63
29197;BME280;62796;42.654;23.316;2022-08-20T00:30:53;94176.91;;;26.08;48.50
29197;BME280;62796;42.654;23.316;2022-08-20T00:33:21;94176.91;;;26.08;48.38
29197;BME280;62796;42.654;23.316;2022-08-20T00:35:50;94166.41;;;26.07;48.41
29197;BME280;62796;42.654;23.316;2022-08-20T00:38:16;94168.00;;;26.11;48.38
29197;BME280;62796;42.654;23.316;2022-08-20T00:40:46;94176.59;;;26.13;48.56
29197;BME280;62796;42.654;23.316;2022-08-20T00:43:40;94186.69;;;26.17;48.35
29197;BME280;62796;42.654;23.316;2022-08-20T00:46:15;94183.63;;;26.18;48.13
29197;BME280;62796;42.654;23.316;2022-08-20T00:48:43;94174.31;;;26.19;48.30
29197;BME280;62796;42.654;23.316;2022-08-20T00:51:22;94165.28;;;26.11;48.40
29197;BME280;62796;42.654;23.316;2022-08-20T00:53:55;94173.50;;;26.19;48.24
29197;BME280;62796;42.654;23.316;2022-08-20T00:56:22;94175.41;;;26.14;48.37
29197;BME280;62796;42.654;23.316;2022-08-20T00:58:48;94164.19;;;26.16;48.42
29197;BME280;62796;42.654;23.316;2022-08-20T01:01:15;94169.63;;;26.16;48.49
29197;BME280;62796;42.654;23.316;2022-08-20T01:03:40;94155.63;;;26.14;48.79
29197;BME280;62796;42.654;23.316;2022-08-20T01:06:07;94140.41;;;26.09;48.77
29197;BME280;62796;42.654;23.316;2022-08-20T01:08:37;94152.47;;;26.08;48.77
29197;BME280;62796;42.654;23.316;2022-08-20T01:11:03;94142.28;;;26.02;48.85
29197;BME280;62796;42.654;23.316;2022-08-20T01:13:39;94141.91;;;26.03;48.70
29197;BME280;62796;42.654;23.316;2022-08-20T01:16:31;94114.13;;;25.87;49.05
29197;BME280;62796;42.654;23.316;2022-08-20T01:18:58;94139.13;;;25.96;49.28
29197;BME280;62796;42.654;23.316;2022-08-20T01:21:25;94138.25;;;25.92;49.15
29197;BME280;62796;42.654;23.316;2022-08-20T01:24:05;94143.28;;;25.90;49.17
29197;BME280;62796;42.654;23.316;2022-08-20T01:26:38;94128.06;;;25.82;49.26
29197;BME280;62796;42.654;23.316;2022-08-20T01:29:15;94137.72;;;25.79;49.38
29197;BME280;62796;42.654;23.316;2022-08-20T01:31:43;94132.59;;;25.70;49.34
29197;BME280;62796;42.654;23.316;2022-08-20T01:34:12;94138.81;;;25.74;49.86
29197;BME280;62796;42.654;23.316;2022-08-20T01:39:09;94145.84;;;25.75;49.87
29197;BME280;62796;42.654;23.316;2022-08-20T01:44:10;94133.34;;;25.71;49.79
29197;BME280;62796;42.654;23.316;2022-08-20T01:46:38;94132.59;;;25.70;49.76
29197;BME280;62796;42.654;23.316;2022-08-20T01:49:26;94114.59;;;25.58;50.29
29197;BME280;62796;42.654;23.316;2022-08-20T01:51:55;94115.34;;;25.55;50.44
29197;BME280;62796;42.654;23.316;2022-08-20T01:54:23;94103.59;;;25.48;50.36
29197;BME280;62796;42.654;23.316;2022-08-20T01:56:59;94118.38;;;25.50;50.30
29197;BME280;62796;42.654;23.316;2022-08-20T01:59:27;94114.38;;;25.41;50.49
29197;BME280;62796;42.654;23.316;2022-08-20T02:01:53;94093.72;;;25.32;50.44
29197;BME280;62796;42.654;23.316;2022-08-20T02:04:19;94115.94;;;25.42;50.66
29197;BME280;62796;42.654;23.316;2022-08-20T02:06:57;94108.06;;;25.33;50.59
29197;BME280;62796;42.654;23.316;2022-08-20T02:09:33;94124.91;;;25.46;50.89
29197;BME280;62796;42.654;23.316;2022-08-20T02:12:00;94122.19;;;25.46;50.90
29197;BME280;62796;42.654;23.316;2022-08-20T02:14:27;94106.22;;;25.41;50.89
29197;BME280;62796;42.654;23.316;2022-08-20T02:16:53;94123.19;;;25.30;51.17
29197;BME280;62796;42.654;23.316;2022-08-20T02:19:30;94119.44;;;25.42;51.12
29197;BME280;62796;42.654;23.316;2022-08-20T02:21:59;94119.06;;;25.44;50.66
29197;BME280;62796;42.654;23.316;2022-08-20T02:24:26;94125.75;;;25.50;50.85
29197;BME280;62796;42.654;23.316;2022-08-20T02:26:52;94120.72;;;25.52;50.92
29197;BME280;62796;42.654;23.316;2022-08-20T02:29:18;94091.00;;;25.32;50.70
29197;BME280;62796;42.654;23.316;2022-08-20T02:31:44;94121.59;;;25.60;50.45
29197;BME280;62796;42.654;23.316;2022-08-20T02:34:11;94127.78;;;25.60;50.49
29197;BME280;62796;42.654;23.316;2022-08-20T02:36:38;94123.13;;;25.57;50.31
29197;BME280;62796;42.654;23.316;2022-08-20T02:39:06;94117.22;;;25.51;50.08
29197;BME280;62796;42.654;23.316;2022-08-20T02:41:33;94116.41;;;25.47;50.03
29197;BME280;62796;42.654;23.316;2022-08-20T02:43:59;94111.63;;;25.37;50.27
29197;BME280;62796;42.654;23.316;2022-08-20T02:46:24;94133.97;;;25.27;50.43
29197;BME280;62796;42.654;23.316;2022-08-20T02:48:53;94127.31;;;25.24;50.99
29197;BME280;62796;42.654;23.316;2022-08-20T02:51:18;94138.88;;;25.17;50.82
29197;BME280;62796;42.654;23.316;2022-08-20T02:53:44;94136.63;;;24.96;51.18
29197;BME280;62796;42.654;23.316;2022-08-20T02:56:10;94142.84;;;24.97;51.42
29197;BME280;62796;42.654;23.316;2022-08-20T02:58:36;94143.63;;;24.97;51.02
29197;BME280;62796;42.654;23.316;2022-08-20T03:01:05;94144.09;;;25.03;50.89
29197;BME280;62796;42.654;23.316;2022-08-20T03:03:30;94138.63;;;24.99;51.07
29197;BME280;62796;42.654;23.316;2022-08-20T03:05:58;94150.44;;;25.11;51.15
29197;BME280;62796;42.654;23.316;2022-08-20T03:08:24;94147.25;;;25.09;51.17
29197;BME280;62796;42.654;23.316;2022-08-20T03:10:51;94139.88;;;25.06;51.35
29197;BME280;62796;42.654;23.316;2022-08-20T03:13:17;94141.78;;;25.05;51.40
29197;BME280;62796;42.654;23.316;2022-08-20T03:15:49;94136.31;;;25.01;51.26
29197;BME280;62796;42.654;23.316;2022-08-20T03:18:15;94147.25;;;25.09;51.37
29197;BME280;62796;42.654;23.316;2022-08-20T03:20:42;94131.25;;;25.00;51.06
29197;BME280;62796;42.654;23.316;2022-08-20T03:23:07;94137.13;;;25.02;51.02
29197;BME280;62796;42.654;23.316;2022-08-20T03:25:33;94140.19;;;25.00;51.35
29197;BME280;62796;42.654;23.316;2022-08-20T03:27:59;94138.97;;;24.98;51.27
29197;BME280;62796;42.654;23.316;2022-08-20T03:30:27;94149.94;;;25.05;51.52
29197;BME280;62796;42.654;23.316;2022-08-20T03:32:53;94158.03;;;25.01;51.40
29197;BME280;62796;42.654;23.316;2022-08-20T03:35:21;94158.03;;;25.01;51.51
29197;BME280;62796;42.654;23.316;2022-08-20T03:37:46;94151.00;;;24.97;51.55
29197;BME280;62796;42.654;23.316;2022-08-20T03:40:21;94154.06;;;24.95;51.65
29197;BME280;62796;42.654;23.316;2022-08-20T03:42:48;94157.50;;;24.92;51.91
29197;BME280;62796;42.654;23.316;2022-08-20T03:45:13;94159.38;;;24.88;52.04
29197;BME280;62796;42.654;23.316;2022-08-20T03:47:40;94171.06;;;24.92;51.95
29197;BME280;62796;42.654;23.316;2022-08-20T03:50:08;94165.66;;;24.92;52.28
29197;BME280;62796;42.654;23.316;2022-08-20T03:52:34;94155.09;;;24.87;52.27
29197;BME280;62796;42.654;23.316;2022-08-20T03:55:00;94162.03;;;24.85;52.31
29197;BME280;62796;42.654;23.316;2022-08-20T03:57:26;94158.47;;;24.80;52.49
29197;BME280;62796;42.654;23.316;2022-08-20T03:59:52;94168.66;;;24.87;52.16
29197;BME280;62796;42.654;23.316;2022-08-20T04:02:18;94160.09;;;24.85;52.30
29197;BME280;62796;42.654;23.316;2022-08-20T04:04:43;94170.59;;;24.87;52.09
29197;BME280;62796;42.654;23.316;2022-08-20T04:07:10;94173.38;;;24.90;52.59
29197;BME280;62796;42.654;23.316;2022-08-20T04:09:36;94174.91;;;24.91;52.57
29197;BME280;62796;42.654;23.316;2022-08-20T04:12:02;94162.47;;;24.87;52.66
29197;BME280;62796;42.654;23.316;2022-08-20T04:14:28;94171.06;;;24.92;52.47
29197;BME280;62796;42.654;23.316;2022-08-20T04:16:53;94167.09;;;24.86;52.61
29197;BME280;62796;42.654;23.316;2022-08-20T04:19:19;94163.78;;;24.73;52.45
29197;BME280;62796;42.654;23.316;2022-08-20T04:21:45;94181.69;;;24.78;52.74
29197;BME280;62796;42.654;23.316;2022-08-20T04:24:12;94177.41;;;24.77;52.43
29197;BME280;62796;42.654;23.316;2022-08-20T04:26:39;94173.66;;;24.85;52.32
29197;BME280;62796;42.654;23.316;2022-08-20T04:29:04;94169.31;;;24.80;52.18
29197;BME280;62796;42.654;23.316;2022-08-20T04:31:30;94167.00;;;24.79;52.68
29197;BME280;62796;42.654;23.316;2022-08-20T04:34:03;94179.16;;;24.89;52.12
29197;BME280;62796;42.654;23.316;2022-08-20T04:36:28;94174.13;;;24.91;52.08
29197;BME280;62796;42.654;23.316;2022-08-20T04:38:54;94178.06;;;24.93;52.27
29197;BME280;62796;42.654;23.316;2022-08-20T04:41:20;94177.38;;;25.00;52.07
29197;BME280;62796;42.654;23.316;2022-08-20T04:43:46;94178.19;;;25.00;51.93
29197;BME280;62796;42.654;23.316;2022-08-20T04:46:12;94191.81;;;25.04;52.13
29197;BME280;62796;42.654;23.316;2022-08-20T04:48:39;94178.53;;;24.99;51.81
29197;BME280;62796;42.654;23.316;2022-08-20T04:51:06;94172.84;;;25.08;51.95
29197;BME280;62796;42.654;23.316;2022-08-20T04:53:32;94176.13;;;25.20;51.98
29197;BME280;62796;42.654;23.316;2022-08-20T04:56:00;94184.00;;;25.26;51.43
29197;BME280;62796;42.654;23.316;2022-08-20T04:58:29;94178.25;;;25.31;51.48
29197;BME280;62796;42.654;23.316;2022-08-20T05:00:57;94177.56;;;25.37;51.45
29197;BME280;62796;42.654;23.316;2022-08-20T05:03:25;94172.25;;;25.45;51.02
29197;BME280;62796;42.654;23.316;2022-08-20T05:05:50;94179.72;;;25.55;50.95
29197;BME280;62796;42.654;23.316;2022-08-20T05:08:18;94181.31;;;25.56;50.70
29197;BME280;62796;42.654;23.316;2022-08-20T05:10:44;94187.19;;;25.62;50.55
29197;BME280;62796;42.654;23.316;2022-08-20T05:13:09;94189.94;;;25.65;50.84
29197;BME280;62796;42.654;23.316;2022-08-20T05:15:36;94191.06;;;25.61;50.96
29197;BME280;62796;42.654;23.316;2022-08-20T05:18:04;94191.13;;;25.64;51.19
29197;BME280;62796;42.654;23.316;2022-08-20T05:20:40;94187.59;;;25.64;51.21
29197;BME280;62796;42.654;23.316;2022-08-20T05:23:08;94187.41;;;25.80;51.03
29197;BME280;62796;42.654;23.316;2022-08-20T05:25:34;94182.06;;;25.87;50.57
29197;BME280;62796;42.654;23.316;2022-08-20T05:28:03;94175.69;;;26.02;50.43
29197;BME280;62796;42.654;23.316;2022-08-20T05:30:31;94169.97;;;26.14;49.78
29197;BME280;62796;42.654;23.316;2022-08-20T05:33:00;94154.91;;;26.21;49.86
29197;BME280;62796;42.654;23.316;2022-08-20T05:35:26;94169.84;;;26.41;49.49
29197;BME280;62796;42.654;23.316;2022-08-20T05:37:51;94159.84;;;26.49;49.31
29197;BME280;62796;42.654;23.316;2022-08-20T05:40:18;94164.28;;;26.68;49.28
29197;BME280;62796;42.654;23.316;2022-08-20T05:42:44;94162.03;;;26.77;49.21
29197;BME280;62796;42.654;23.316;2022-08-20T05:45:09;94144.94;;;26.77;48.90
29197;BME280;62796;42.654;23.316;2022-08-20T05:47:39;94169.50;;;26.87;49.34
29197;BME280;62796;42.654;23.316;2022-08-20T05:50:05;94163.75;;;27.00;48.96
29197;BME280;62796;42.654;23.316;2022-08-20T05:52:31;94165.41;;;27.12;48.24
29197;BME280;62796;42.654;23.316;2022-08-20T05:54:56;94168.09;;;27.08;48.76
29197;BME280;62796;42.654;23.316;2022-08-20T05:57:22;94158.41;;;27.14;48.89
29197;BME280;62796;42.654;23.316;2022-08-20T05:59:47;94155.44;;;27.30;48.34
29197;BME280;62796;42.654;23.316;2022-08-20T06:02:13;94146.56;;;27.44;48.35
29197;BME280;62796;42.654;23.316;2022-08-20T06:05:07;94156.75;;;27.61;48.72
29197;BME280;62796;42.654;23.316;2022-08-20T06:07:32;94147.47;;;27.70;48.27
29197;BME280;62796;42.654;23.316;2022-08-20T06:09:59;94159.59;;;27.90;47.91
29197;BME280;62796;42.654;23.316;2022-08-20T06:12:25;94158.88;;;27.93;47.04
29197;BME280;62796;42.654;23.316;2022-08-20T06:14:50;94160.03;;;27.92;47.14
29197;BME280;62796;42.654;23.316;2022-08-20T06:17:17;94163.22;;;28.09;46.64
29197;BME280;62796;42.654;23.316;2022-08-20T06:19:44;94160.13;;;28.25;46.18
29197;BME280;62796;42.654;23.316;2022-08-20T06:22:12;94171.06;;;28.43;46.27
29197;BME280;62796;42.654;23.316;2022-08-20T06:24:38;94167.25;;;28.65;45.64
29197;BME280;62796;42.654;23.316;2022-08-20T06:27:05;94160.22;;;28.86;45.56
29197;BME280;62796;42.654;23.316;2022-08-20T06:29:31;94170.34;;;29.10;45.16
29197;BME280;62796;42.654;23.316;2022-08-20T06:31:58;94163.72;;;29.22;44.72
29197;BME280;62796;42.654;23.316;2022-08-20T06:34:23;94157.03;;;29.48;44.68
29197;BME280;62796;42.654;23.316;2022-08-20T06:36:56;94162.44;;;29.66;44.30
29197;BME280;62796;42.654;23.316;2022-08-20T06:39:23;94162.00;;;29.86;44.00
29197;BME280;62796;42.654;23.316;2022-08-20T06:41:48;94169.34;;;30.07;43.82
29197;BME280;62796;42.654;23.316;2022-08-20T06:44:15;94165.75;;;30.24;43.61
29197;BME280;62796;42.654;23.316;2022-08-20T06:46:41;94159.41;;;30.38;42.97
29197;BME280;62796;42.654;23.316;2022-08-20T06:49:08;94158.88;;;30.61;42.75
29197;BME280;62796;42.654;23.316;2022-08-20T06:51:34;94158.03;;;30.68;42.84
29197;BME280;62796;42.654;23.316;2022-08-20T06:54:02;94150.94;;;30.78;42.92
29197;BME280;62796;42.654;23.316;2022-08-20T06:56:28;94157.84;;;30.97;42.43
29197;BME280;62796;42.654;23.316;2022-08-20T06:58:53;94133.91;;;31.04;42.51
29197;BME280;62796;42.654;23.316;2022-08-20T07:01:19;94147.09;;;31.20;42.16
29197;BME280;62796;42.654;23.316;2022-08-20T07:03:46;94133.22;;;31.35;41.80
29197;BME280;62796;42.654;23.316;2022-08-20T07:06:13;94129.16;;;31.54;41.74
29197;BME280;62796;42.654;23.316;2022-08-20T07:08:40;94131.75;;;31.65;41.07
29197;BME280;62796;42.654;23.316;2022-08-20T07:11:06;94120.34;;;31.70;41.26
29197;BME280;62796;42.654;23.316;2022-08-20T07:13:32;94120.13;;;31.88;41.48
29197;BME280;62796;42.654;23.316;2022-08-20T07:15:58;94124.53;;;32.12;40.24
29197;BME280;62796;42.654;23.316;2022-08-20T07:18:23;94129.72;;;32.34;40.53
29197;BME280;62796;42.654;23.316;2022-08-20T07:20:49;94128.31;;;32.49;39.46
29197;BME280;62796;42.654;23.316;2022-08-20T07:23:14;94129.44;;;32.52;39.13
29197;BME280;62796;42.654;23.316;2022-08-20T07:25:42;94134.34;;;32.68;39.39
29197;BME280;62796;42.654;23.316;2022-08-20T07:28:14;94127.31;;;32.90;38.99
29197;BME280;62796;42.654;23.316;2022-08-20T07:30:41;94127.94;;;32.98;39.22
29197;BME280;62796;42.654;23.316;2022-08-20T07:33:26;94131.28;;;33.13;38.11
29197;BME280;62796;42.654;23.316;2022-08-20T07:35:53;94097.97;;;33.07;38.32
29197;BME280;62796;42.654;23.316;2022-08-20T07:38:21;94118.25;;;33.37;38.55
29197;BME280;62796;42.654;23.316;2022-08-20T07:40:50;94108.91;;;33.35;38.25
29197;BME280;62796;42.654;23.316;2022-08-20T07:43:16;94122.22;;;33.56;37.57
29197;BME280;62796;42.654;23.316;2022-08-20T07:45:42;94130.66;;;33.69;37.50
29197;BME280;62796;42.654;23.316;2022-08-20T07:48:10;94123.03;;;33.77;37.31
29197;BME280;62796;42.654;23.316;2022-08-20T07:50:36;94129.28;;;33.97;36.79
29197;BME280;62796;42.654;23.316;2022-08-20T07:53:02;94128.97;;;34.12;37.12
29197;BME280;62796;42.654;23.316;2022-08-20T07:55:28;94125.72;;;34.17;36.78
29197;BME280;62796;42.654;23.316;2022-08-20T07:57:57;94128.00;;;34.22;36.78
29197;BME280;62796;42.654;23.316;2022-08-20T08:00:23;94124.94;;;34.36;36.82
29197;BME280;62796;42.654;23.316;2022-08-20T08:02:50;94116.16;;;34.41;35.55
29197;BME280;62796;42.654;23.316;2022-08-20T08:05:15;94113.94;;;34.53;35.78
29197;BME280;62796;42.654;23.316;2022-08-20T08:07:43;94112.00;;;34.70;35.70
29197;BME280;62796;42.654;23.316;2022-08-20T08:10:12;94126.19;;;34.85;34.86
29197;BME280;62796;42.654;23.316;2022-08-20T08:12:42;94116.88;;;34.95;35.24
29197;BME280;62796;42.654;23.316;2022-08-20T08:15:13;94118.50;;;35.09;34.78
29197;BME280;62796;42.654;23.316;2022-08-20T08:17:40;94106.72;;;35.08;34.98
29197;BME280;62796;42.654;23.316;2022-08-20T08:20:09;94112.03;;;35.32;34.36
29197;BME280;62796;42.654;23.316;2022-08-20T08:22:36;94125.09;;;35.44;33.69
29197;BME280;62796;42.654;23.316;2022-08-20T08:25:04;94108.38;;;35.51;33.79
29197;BME280;62796;42.654;23.316;2022-08-20T08:27:30;94112.44;;;35.47;34.31
29197;BME280;62796;42.654;23.316;2022-08-20T08:29:59;94093.03;;;35.50;33.76
29197;BME280;62796;42.654;23.316;2022-08-20T08:32:25;94096.59;;;35.64;33.89
29197;BME280;62796;42.654;23.316;2022-08-20T08:34:51;94107.84;;;35.86;33.75
29197;BME280;62796;42.654;23.316;2022-08-20T08:37:17;94106.63;;;36.00;33.42
29197;BME280;62796;42.654;23.316;2022-08-20T08:39:42;94103.47;;;36.14;32.77
29197;BME280;62796;42.654;23.316;2022-08-20T08:42:44;94098.41;;;36.25;33.06
29197;BME280;62796;42.654;23.316;2022-08-20T08:45:12;94087.03;;;36.36;32.77
29197;BME280;62796;42.654;23.316;2022-08-20T08:47:40;94083.84;;;36.38;32.17
29197;BME280;62796;42.654;23.316;2022-08-20T08:50:11;94082.19;;;36.53;32.48
29197;BME280;62796;42.654;23.316;2022-08-20T08:52:40;94074.09;;;36.46;32.61
29197;BME280;62796;42.654;23.316;2022-08-20T08:55:10;94080.63;;;36.52;32.77
29197;BME280;62796;42.654;23.316;2022-08-20T08:57:40;94073.97;;;36.62;32.04
29197;BME280;62796;42.654;23.316;2022-08-20T09:00:11;94072.53;;;36.71;32.16
29197;BME280;62796;42.654;23.316;2022-08-20T09:02:39;94069.78;;;36.83;32.24
29197;BME280;62796;42.654;23.316;2022-08-20T09:05:15;94076.06;;;36.84;32.14
29197;BME280;62796;42.654;23.316;2022-08-20T09:07:44;94056.63;;;36.75;32.43
29197;BME280;62796;42.654;23.316;2022-08-20T09:10:12;94054.84;;;36.81;33.08
29197;BME280;62796;42.654;23.316;2022-08-20T09:12:38;94059.47;;;36.84;32.16
29197;BME280;62796;42.654;23.316;2022-08-20T09:15:04;94064.22;;;36.96;32.04
29197;BME280;62796;42.654;23.316;2022-08-20T09:17:29;94077.41;;;37.14;32.23
29197;BME280;62796;42.654;23.316;2022-08-20T09:19:55;94071.44;;;37.16;31.64
29197;BME280;62796;42.654;23.316;2022-08-20T09:22:22;94068.66;;;37.29;31.93
29197;BME280;62796;42.654;23.316;2022-08-20T09:24:49;94069.69;;;37.44;31.45
29197;BME280;62796;42.654;23.316;2022-08-20T09:27:15;94066.50;;;37.68;31.04
29197;BME280;62796;42.654;23.316;2022-08-20T09:29:41;94062.28;;;37.85;31.23
29197;BME280;62796;42.654;23.316;2022-08-20T09:34:42;94040.63;;;37.93;31.05
29197;BME280;62796;42.654;23.316;2022-08-20T09:37:08;94047.06;;;38.12;30.63
29197;BME280;62796;42.654;23.316;2022-08-20T09:39:34;94048.09;;;38.05;30.89
29197;BME280;62796;42.654;23.316;2022-08-20T09:42:15;94050.66;;;38.22;30.29
29197;BME280;62796;42.654;23.316;2022-08-20T09:44:41;94046.16;;;38.15;29.62
29197;BME280;62796;42.654;23.316;2022-08-20T09:47:07;94047.94;;;38.09;30.29
29197;BME280;62796;42.654;23.316;2022-08-20T09:49:32;94046.66;;;38.23;30.33
29197;BME280;62796;42.654;23.316;2022-08-20T09:51:59;94034.66;;;38.16;29.26
29197;BME280;62796;42.654;23.316;2022-08-20T09:54:26;94052.69;;;38.30;28.83
29197;BME280;62796;42.654;23.316;2022-08-20T09:57:01;94040.22;;;38.35;28.95
29197;BME280;62796;42.654;23.316;2022-08-20T09:59:28;94039.50;;;38.53;28.87
29197;BME280;62796;42.654;23.316;2022-08-20T10:01:55;94039.50;;;38.53;28.15
29197;BME280;62796;42.654;23.316;2022-08-20T10:04:20;94044.44;;;38.49;29.04
29197;BME280;62796;42.654;23.316;2022-08-20T10:06:46;94043.22;;;38.50;28.43
29197;BME280;62796;42.654;23.316;2022-08-20T10:09:11;94037.25;;;38.61;28.39
29197;BME280;62796;42.654;23.316;2022-08-20T10:11:37;94035.75;;;38.78;28.02
29197;BME280;62796;42.654;23.316;2022-08-20T10:14:03;94035.16;;;38.92;28.24
29197;BME280;62796;42.654;23.316;2022-08-20T10:16:29;94031.34;;;39.08;28.04
29197;BME280;62796;42.654;23.316;2022-08-20T10:18:55;94036.44;;;39.19;27.97
29197;BME280;62796;42.654;23.316;2022-08-20T10:21:21;94018.56;;;39.29;28.52
29197;BME280;62796;42.654;23.316;2022-08-20T10:23:47;94025.94;;;39.42;28.45
29197;BME280;62796;42.654;23.316;2022-08-20T10:26:14;94029.19;;;39.49;28.39
29197;BME280;62796;42.654;23.316;2022-08-20T10:28:39;94021.28;;;39.76;26.57
29197;BME280;62796;42.654;23.316;2022-08-20T10:31:06;94020.31;;;39.79;27.73
29197;BME280;62796;42.654;23.316;2022-08-20T10:33:31;94014.94;;;39.75;27.40
29197;BME280;62796;42.654;23.316;2022-08-20T10:35:57;94014.53;;;39.58;27.66
29197;BME280;62796;42.654;23.316;2022-08-20T10:38:29;94004.31;;;39.64;27.23
29197;BME280;62796;42.654;23.316;2022-08-20T10:40:55;94002.47;;;39.71;26.91
29197;BME280;62796;42.654;23.316;2022-08-20T10:43:20;94006.50;;;39.60;26.99
29197;BME280;62796;42.654;23.316;2022-08-20T10:45:45;94000.81;;;39.55;27.60
29197;BME280;62796;42.654;23.316;2022-08-20T10:48:11;94001.72;;;39.52;27.65
29197;BME280;62796;42.654;23.316;2022-08-20T10:50:36;93983.09;;;39.24;27.19
29197;BME280;62796;42.654;23.316;2022-08-20T10:53:03;93989.41;;;38.97;27.86
29197;BME280;62796;42.654;23.316;2022-08-20T10:55:28;93993.28;;;39.09;28.20
29197;BME280;62796;42.654;23.316;2022-08-20T10:57:54;93986.81;;;39.21;28.09
29197;BME280;62796;42.654;23.316;2022-08-20T11:00:20;93992.50;;;39.27;27.09
29197;BME280;62796;42.654;23.316;2022-08-20T11:02:46;93992.66;;;39.23;27.79
29197;BME280;62796;42.654;23.316;2022-08-20T11:05:12;93986.63;;;39.34;27.31
29197;BME280;62796;42.654;23.316;2022-08-20T11:07:40;93995.13;;;39.21;27.09
29197;BME280;62796;42.654;23.316;2022-08-20T11:10:07;93991.88;;;39.04;27.81
29197;BME280;62796;42.654;23.316;2022-08-20T11:12:33;93993.13;;;38.94;27.78
29197;BME280;62796;42.654;23.316;2022-08-20T11:14:59;93987.38;;;38.79;27.74
29197;BME280;62796;42.654;23.316;2022-08-20T11:17:30;93976.22;;;38.42;28.89
29197;BME280;62796;42.654;23.316;2022-08-20T11:19:57;93987.28;;;38.33;28.56
29197;BME280;62796;42.654;23.316;2022-08-20T11:22:23;93978.94;;;38.14;29.10
29197;BME280;62796;42.654;23.316;2022-08-20T11:24:50;93976.06;;;37.96;29.45
29197;BME280;62796;42.654;23.316;2022-08-20T11:27:37;93977.59;;;37.88;29.41
29197;BME280;62796;42.654;23.316;2022-08-20T11:30:04;93971.34;;;37.65;29.44
29197;BME280;62796;42.654;23.316;2022-08-20T11:32:30;93964.13;;;37.46;30.24
29197;BME280;62796;42.654;23.316;2022-08-20T11:34:55;93957.75;;;37.36;29.91
29197;BME280;62796;42.654;23.316;2022-08-20T11:37:22;93950.19;;;37.27;30.24
29197;BME280;62796;42.654;23.316;2022-08-20T11:39:48;93953.19;;;36.98;30.54
29197;BME280;62796;42.654;23.316;2022-08-20T11:42:14;93942.06;;;36.89;30.50
29197;BME280;62796;42.654;23.316;2022-08-20T11:44:39;93940.34;;;36.82;30.94
29197;BME280;62796;42.654;23.316;2022-08-20T11:47:06;93937.81;;;36.75;30.58
29197;BME280;62796;42.654;23.316;2022-08-20T11:49:33;93939.03;;;36.74;30.75
29197;BME280;62796;42.654;23.316;2022-08-20T11:52:00;93935.84;;;36.62;30.80
29197;BME280;62796;42.654;23.316;2022-08-20T11:54:26;93942.38;;;36.68;30.97
29197;BME280;62796;42.654;23.316;2022-08-20T11:56:56;93945.44;;;36.71;30.52
29197;BME280;62796;42.654;23.316;2022-08-20T11:59:25;93946.69;;;36.70;30.47
29197;BME280;62796;42.654;23.316;2022-08-20T12:01:51;93948.34;;;36.54;30.85
29197;BME280;62796;42.654;23.316;2022-08-20T12:04:19;93943.97;;;36.44;31.27
29197;BME280;62796;42.654;23.316;2022-08-20T12:06:44;93940.88;;;36.42;31.06
29197;BME280;62796;42.654;23.316;2022-08-20T12:09:10;93938.31;;;36.47;31.00
29197;BME280;62796;42.654;23.316;2022-08-20T12:11:35;93941.00;;;36.38;30.62
29197;BME280;62796;42.654;23.316;2022-08-20T12:14:01;93940.16;;;36.28;30.66
29197;BME280;62796;42.654;23.316;2022-08-20T12:16:26;93944.13;;;36.27;31.00
29197;BME280;62796;42.654;23.316;2022-08-20T12:18:51;93951.75;;;36.23;30.99
29197;BME280;62796;42.654;23.316;2022-08-20T12:21:17;93946.09;;;36.01;32.45
29197;BME280;62796;42.654;23.316;2022-08-20T12:23:42;93960.03;;;35.85;31.90
29197;BME280;62796;42.654;23.316;2022-08-20T12:26:08;93956.50;;;35.71;32.58
29197;BME280;62796;42.654;23.316;2022-08-20T12:28:33;93942.00;;;35.54;33.45
29197;BME280;62796;42.654;23.316;2022-08-20T12:30:59;93959.75;;;35.41;32.84
29197;BME280;62796;42.654;23.316;2022-08-20T12:33:24;93977.47;;;35.27;35.94
29197;BME280;62796;42.654;23.316;2022-08-20T12:35:50;93997.34;;;35.05;40.26
29197;BME280;62796;42.654;23.316;2022-08-20T12:38:16;94000.00;;;34.47;42.98
29197;BME280;62796;42.654;23.316;2022-08-20T12:40:41;94023.72;;;33.51;44.69
29197;BME280;62796;42.654;23.316;2022-08-20T12:43:07;94007.25;;;32.67;47.38
29197;BME280;62796;42.654;23.316;2022-08-20T12:45:33;94022.41;;;31.70;48.09
29197;BME280;62796;42.654;23.316;2022-08-20T12:48:03;94009.09;;;31.03;45.76
29197;BME280;62796;42.654;23.316;2022-08-20T12:50:30;94007.41;;;30.30;47.12
29197;BME280;62796;42.654;23.316;2022-08-20T12:52:55;94009.22;;;29.95;50.05
29197;BME280;62796;42.654;23.316;2022-08-20T12:55:21;93971.28;;;29.34;51.09
29197;BME280;62796;42.654;23.316;2022-08-20T12:57:49;93988.50;;;29.31;50.94
29197;BME280;62796;42.654;23.316;2022-08-20T13:00:28;93973.66;;;29.28;52.93